EMPK1: COTTONWOOD R AT EMPORIA

                                SHEF ID:       EMPK1     COTTONWOOD R AT EMPORIA
STATION TYPE:

STAGE RIV-FLOW BAT-LOAD
ft cfs volt
Ccp-Rev Ccp-Rev Ccp-Rev
(America/Chicago)
05/07 00:00 4.05 743 12.73
05/07 01:00 4.04 739 12.73
05/07 02:00 4.02 731 12.73
05/07 03:00 4.01 728 12.73
05/07 04:00 3.99 720 12.65
05/07 05:00 3.97 712 12.65
05/07 06:00 3.96 708 12.65
05/07 07:00 3.95 704 12.57
05/07 08:00 3.93 697 12.81
05/07 09:00 3.93 697 13.29
05/07 10:00 3.92 693 13.37
05/07 11:00 3.91 689 13.44
05/07 12:00 3.90 685 13.68
05/07 13:00 3.88 678 13.76
05/07 14:00 3.88 678 13.84
05/07 15:00 3.86 670 13.76
05/07 16:00 3.85 667 ----
05/07 17:00 3.83 659 13.68
05/07 18:00 3.82 655 13.68
05/07 19:00 3.80 648 ----
05/07 20:00 3.80 648 13.29
05/07 21:00 3.78 640 12.89
05/07 22:00 3.78 640 12.81
05/07 23:00 ---- ---- ----
Data processed at Fri 08May2026 03:36 GMT

NOTICE: If you are parsing this page

Please convert to using our Data API. Starting early 2026 we will be migrating to: https://water.usace.army.mil with modern pages rendered in JavaScript. When this migration completes you will no longer be able to scrape this page! CWMSDataAPI (CDA)

Timeseries IDs (TSIDs)

TSIDs used from left to right in the data table
CEMP.Stage.Inst.1Hour.0.Ccp-Rev
CEMP.Flow.Inst.1Hour.0.Ccp-Rev
CEMP.Volt-Battery Load.Inst.1Hour.0.Ccp-Rev

                            

All information presented herein is the property of the government of the United States of America and may be revised or deleted at any time without prior notice. Dissemination of this information without the expressed written consent of the Public Affairs Office, Tulsa District U.S. Army Corps of Engineers is strictly prohibited. These data are gathered electronically and, as presented, have NOT undergone any form of quality control. These data are NOT guaranteed to be valid or correct.